Terminal Aerodrome Forecast
Issued by NWS

Home | Current Version | Previous Version | Text Only | Print | Product List | Glossary On
Versions: 1 2 3 4 5 6 7 8 9 10 11 12 13 14 15
000
FTUS45 KTFX 232320
TAFHVR
TAF
KHVR 232320Z 2400/2424 31019G28KT P6SM VCSH BKN045
     FM240200 30018KT P6SM BKN050
     FM240500 29015KT P6SM VCSH SCT015 OVC025 PROB30 2409/2413 -SHRA
      BKN008
     FM241700 33015KT P6SM SCT030 BKN050=

USA.gov is the U.S. government's official web portal to all federal, state and local government web resources and services.